Hanjin Aqua — 3FIG — position and weather

sailwx.info

Track history (hours):
 
Tides and Currents Weather Stations Pressure Air Temp Water Temp Dewpoint Dewpoint Depression Visibility Wind Speed Wind Dir Waves Ship Positions

Hanjin Aqua

Last reported at 2018-Feb-15 17:31 UTC. Time now 2018-Feb-24 10:11 UTC.
Position N 05°02' W 000°12'.
Warning: this ship's position is 8 days out of date.

Length 249 m; draft 10 m.

Type: Ship (hazmat cat A). MMSI: 372817000.

Date/timePositionNaut miles runAvg speedWind from/ knotsBaromVisibWave heightAir tempDewpointWater temp
2018-Feb-15 17:31N 05°02' W 000°12'010.9
2018-Feb-15 17:30N 05°02' W 000°12'2910.9
2018-Feb-15 14:53N 05°11' E 000°16'1810.5
2018-Feb-15 13:12N 05°18' E 000°32'610.9
2018-Feb-15 12:40N 05°20' E 000°37'124 5.9
2018-Feb-14 15:43N 06°21' E 002°25'0 0.0
2018-Feb-14 15:28N 06°21' E 002°25'10 0.5
2018-Feb-13 21:16N 06°15' E 002°33'0 0.0
2018-Feb-13 20:58N 06°15' E 002°33'0 0.0
2018-Feb-13 19:01N 06°15' E 002°33'0 0.0
2018-Feb-13 18:55N 06°15' E 002°33'125 2.5
2018-Feb-11 16:32N 05°15' E 000°42'014.9
2018-Feb-11 16:30N 05°15' E 000°42'814.8
2018-Feb-11 15:59N 05°11' E 000°35'714.7
2018-Feb-11 15:30N 05°08' E 000°29'714.7
2018-Feb-11 15:00N 05°05' E 000°23'714.9
2018-Feb-11 14:30N 05°02' E 000°16'814.8
2018-Feb-11 13:59N 04°59' E 000°09'714.5
2018-Feb-11 13:30N 04°56' E 000°02'714.6
2018-Feb-11 13:00N 04°53' W 000°04'  
2018-Feb-08 16:30N 07°58' W 014°25'1912.9
2018-Feb-08 15:00N 08°11' W 014°39'5413.6
2018-Feb-08 11:00N 08°48' W 015°19'2013.5
2018-Feb-08 09:30N 09°02' W 015°34'1313.5
2018-Feb-08 08:30N 09°12' W 015°43'713.7
2018-Feb-08 08:00N 09°17' W 015°47'713.6
2018-Feb-08 07:30N 09°22' W 015°52'2114.3
2018-Feb-08 06:00N 09°39' W 016°06'714.4
2018-Feb-08 05:30N 09°45' W 016°10'714.3
2018-Feb-08 05:00N 09°50' W 016°15'3514.1
2018-Feb-08 02:30N 10°17' W 016°38'  
Track history (hours):
 
Tides and Currents Weather Stations Pressure Air Temp Water Temp Dewpoint Dewpoint Depression Visibility Wind Speed Wind Dir Waves Ship Positions

Hanjin Aqua

Last reported at 2018-Feb-15 17:31 UTC. Time now 2018-Feb-24 10:11 UTC.
Position N 05°02' W 000°12'.
Warning: this ship's position is 8 days out of date.

Length 249 m; draft 10 m.

Type: Ship (hazmat cat A). MMSI: 372817000.

Date/timePositionNaut miles runAvg speedWind from/ knotsBaromVisibWave heightAir tempDewpointWater temp
2018-Feb-15 17:31N 05°02' W 000°12'010.9
2018-Feb-15 17:30N 05°02' W 000°12'2910.9
2018-Feb-15 14:53N 05°11' E 000°16'1810.5
2018-Feb-15 13:12N 05°18' E 000°32'610.9
2018-Feb-15 12:40N 05°20' E 000°37'124 5.9
2018-Feb-14 15:43N 06°21' E 002°25'0 0.0
2018-Feb-14 15:28N 06°21' E 002°25'10 0.5
2018-Feb-13 21:16N 06°15' E 002°33'0 0.0
2018-Feb-13 20:58N 06°15' E 002°33'0 0.0
2018-Feb-13 19:01N 06°15' E 002°33'0 0.0
2018-Feb-13 18:55N 06°15' E 002°33'125 2.5
2018-Feb-11 16:32N 05°15' E 000°42'014.9
2018-Feb-11 16:30N 05°15' E 000°42'814.8
2018-Feb-11 15:59N 05°11' E 000°35'714.7
2018-Feb-11 15:30N 05°08' E 000°29'714.7
2018-Feb-11 15:00N 05°05' E 000°23'714.9
2018-Feb-11 14:30N 05°02' E 000°16'814.8
2018-Feb-11 13:59N 04°59' E 000°09'714.5
2018-Feb-11 13:30N 04°56' E 000°02'714.6
2018-Feb-11 13:00N 04°53' W 000°04'  
2018-Feb-08 16:30N 07°58' W 014°25'1912.9
2018-Feb-08 15:00N 08°11' W 014°39'5413.6
2018-Feb-08 11:00N 08°48' W 015°19'2013.5
2018-Feb-08 09:30N 09°02' W 015°34'1313.5
2018-Feb-08 08:30N 09°12' W 015°43'713.7
2018-Feb-08 08:00N 09°17' W 015°47'713.6
2018-Feb-08 07:30N 09°22' W 015°52'2114.3
2018-Feb-08 06:00N 09°39' W 016°06'714.4
2018-Feb-08 05:30N 09°45' W 016°10'714.3
2018-Feb-08 05:00N 09°50' W 016°15'3514.1
2018-Feb-08 02:30N 10°17' W 016°38'  

Dump ship's entire track history